Pershing, Indiana
Current Conditions -  °F | °C
As of 11:53 PM on Saturday 25 Oct 2014 (Local Time) from KMIE Reporting Station
Clear Clear  
Wind Chill: 56°   Ceiling: Unl
Heat Index: 56°   Visibility: 10mi
Dew Point: 39°   Wind: 8mph
Humidity: 53%   Direction: 290°WNW
Pressure: 29.94"   Gusts: NA
Location:  39.83°N, 85.13°W
Report Text: KMIE 260353Z 29007KT 10SM CLR 13/04 A2994 RMK AO2 SLP134 T01330039
Loading
Personal Weather Stations






























Interactive Weather Map
Tropical Storm Tracking
New forecast layout! Learn more

10-Day Weather Forecast

Advertisements
Track Severe Weather on mobile